Tiempo atmosférico en la estación meteorológica de Segorbe, Castelló/Castellón (460 m.)



Fecha
DESCASC
Temp. máxima en grados centígrados (hora)
DESCASC
Temp. mínima en grados centígrados (hora)
DESCASC
Temp. media en grados centígrados
DESCASC
Racha de viento máxima en m/sg (hora)
DESCASC
Velocidad máxima media en intervalos de 10 minutos(hora)
DESCASC
Precipitaciones diarias en mm
DESCASC
Precipitaciones de 00:00 a 06:00 en mm
DESCASC
Precipitaciones de 06:00 a 12:00 en mm
DESCASC
Precipitaciones de 12:00 a 18:00 en mm
DESCASC
Precipitaciones de 18:00 a 24:00 en mm
DESCASC
29-09-2019 31.6 (15:20) 14.1 (08:00) 22.9 5.83 (13:40) 3.33 (23:50) 0 0 0 0 0
28-09-2019 25.9 (13:50) 13.5 (07:50) 19.7 6.39 (15:00) 3.61 (15:00) 0 0 0 0 0
27-09-2019 28.3 (13:50) 13.4 (08:20) 20.8 6.39 (14:30) 3.61 (14:30) 0 0 0 0 0
26-09-2019 28.7 (15:30) 12.9 (00:00) 20.8 6.94 (16:30) 3.33 (17:20) 0 0 0 0 0
25-09-2019 26 (11:50) 15.8 (00:00) 20.9 7.22 (14:10) 3.89 (10:50) 0 0 0 0 0
24-09-2019 31.4 (15:00) 12.3 (00:00) 21.8 6.67 (17:10) 3.33 (15:40) 0 0 0 0 0
23-09-2019 26 (15:20) 11.8 (00:00) 18.9 5.56 (17:40) 2.78 (17:40) 0 0 0 0 0
22-09-2019 29.6 (15:10) 15.9 (00:00) 22.8 11.39 (16:00) 3.89 (16:00) 0 0 0 0 0
21-09-2019 27.2 (15:10) 17.2 (00:00) 22.2 6.67 (16:30) 2.22 (15:20) 0 0 0 0 0
20-09-2019 24.1 (12:50) 16.3 (00:00) 20.2 7.22 (15:30) 3.06 (15:30) 3.6 0 0 0 3.6
19-09-2019 27 (13:20) 14.5 (00:00) 20.8 6.94 (14:00) 3.89 (14:10) 0 0 0 0 0
18-09-2019 28.5 (14:50) 13.5 (00:00) 21 6.67 (15:20) 3.61 (21:30) 0 0 0 0 0
17-09-2019 -- (--) -- (--) -- -- (--) -- (--) -- -- -- 0 0
16-09-2019 -- (--) -- (--) -- -- (--) -- (--) -- -- -- -- --

Gráficas

Temp. máximas Temp. mínimas Temp. medias Precipitaciones Rachas de viento máximas Velocidades máximas media en intervalos de 10 minutos

Datos horarios

Fecha y hora oficial Temperatura (ºC) Velocidad del viento (km/h) Dirección del viento Racha (km/h) Dirección de racha Precipitación (mm) Presión (hPa) Tendencia (hPa) Humedad (%)
2019-10-02 23:00:00 18.2 9 Noroeste 22 Noroeste 0 -- -- 47
2019-10-02 22:00:00 17.5 5 Noroeste 18 Noroeste 0 -- -- 48
2019-10-02 21:00:00 17.3 3 Oeste 13 Norte 0 -- -- 48
2019-10-02 20:00:00 20.2 4 Sudoeste 21 Noroeste 0 -- -- 45
2019-10-02 19:00:00 23 12 Noroeste 29 Norte 0 -- -- 35
2019-10-02 18:00:00 24.3 15 Norte 36 Noroeste 0 -- -- 33
2019-10-02 17:00:00 25.5 16 Norte 35 Norte 0 -- -- 32
2019-10-02 16:00:00 25.8 18 Norte 38 Norte 0 -- -- 30
2019-10-02 15:00:00 26 19 Noroeste 40 Norte 0 -- -- 29
2019-10-02 14:00:00 25.2 17 Noroeste 39 Noroeste 0 -- -- 32
2019-10-02 13:00:00 23.9 20 Norte 39 Norte 0 -- -- 36
2019-10-02 12:00:00 21.8 14 Norte 33 Norte 0 -- -- 43
2019-10-02 11:00:00 19.8 16 Norte 36 Noroeste 0 -- -- 50
2019-10-02 10:00:00 20.3 18 Norte 39 Noroeste 0 -- -- 48
2019-10-02 09:00:00 18.8 10 Norte 37 Norte 0 -- -- 50
2019-10-02 08:00:00 18.5 14 Norte 44 Norte 0 -- -- 48
2019-10-02 07:00:00 19.1 17 Norte 30 Norte 0 -- -- 46
2019-10-02 06:00:00 19.9 12 Norte 35 Noroeste 0 -- -- 44
2019-10-02 05:00:00 20.3 13 Noroeste 36 Noroeste 0 -- -- 45
2019-10-02 04:00:00 20.2 13 Norte 27 Oeste 0 -- -- 47
2019-10-02 03:00:00 19 4 Sudoeste 18 Sudoeste 0 -- -- 53
2019-10-02 02:00:00 18.7 2 Sur 18 Nordeste 0 -- -- 55
2019-10-02 01:00:00 20.7 5 Noroeste 24 Norte 0 -- -- 49
2019-10-02 00:00:00 22 11 Norte 23 Norte 0 -- -- 45
2019-10-01 23:00:00 21.5 12 Norte 22 Noroeste 0 -- -- 46
2019-10-01 22:00:00 17.4 3 Oeste 12 Sudoeste 0 -- -- 82
2019-10-01 21:00:00 18.3 9 Sudoeste 13 Sudoeste 0 -- -- 83
2019-10-01 20:00:00 21.3 4 Sudoeste 9 Sudoeste 0 -- -- 79
2019-10-01 19:00:00 23.6 5 Sudeste 21 Sur 0 -- -- 75
2019-10-01 18:00:00 25.6 12 Sur 24 Sudeste 0 -- -- 68
2019-10-01 17:00:00 27.9 9 Este 24 Este 0 -- -- 59
2019-10-01 16:00:00 31.8 9 Sudoeste 26 Sudoeste 0 -- -- 27
2019-10-01 15:00:00 31.8 9 Sudoeste 27 Sudeste 0 -- -- 26
2019-10-01 14:00:00 31.2 6 Sur 21 Oeste 0 -- -- 28
2019-10-01 13:00:00 29.7 6 Oeste 19 Oeste 0 -- -- 31
2019-10-01 12:00:00 27 3 Sudeste 5 Nordeste 0 -- -- 39
2019-10-01 11:00:00 23.9 5 Sudeste 8 Sudeste 0 -- -- 48
2019-10-01 10:00:00 18.9 0 Calma 13 Sudoeste 0 -- -- 72
2019-10-01 09:00:00 15 4 Sudoeste 16 Sudoeste 0 -- -- 84
2019-10-01 08:00:00 12.6 5 Sudoeste 14 Sudoeste 0 -- -- 93
2019-10-01 07:00:00 13.5 4 Oeste 10 Sudoeste 0 -- -- 95
2019-10-01 06:00:00 14.3 5 Oeste 12 Sudoeste 0 -- -- 95
2019-10-01 05:00:00 15.1 3 Sudoeste 14 Sudoeste 0 -- -- 95
2019-10-01 04:00:00 15.5 2 Sudoeste 9 Sudoeste 0 -- -- 95
2019-10-01 03:00:00 16.1 6 Sudoeste 11 Sudoeste 0 -- -- 94
2019-10-01 02:00:00 16.9 3 Oeste 12 Sudoeste 0 -- -- 95
2019-10-01 01:00:00 16.7 6 Sudoeste 10 Sudoeste 0 -- -- 94
2019-10-01 00:00:00 17 8 Sudoeste 10 Sudoeste 0 -- -- 93
2019-09-30 23:00:00 17.2 3 Oeste 9 Sudoeste 0 -- -- 92
2019-09-30 22:00:00 18.3 5 Sudoeste 10 Sur 0 -- -- 88
2019-09-30 21:00:00 19.8 3 Sur 11 Sur 0 -- -- 89
2019-09-30 20:00:00 21.2 4 Sur 12 Sur 0 -- -- 85
2019-09-30 19:00:00 22.7 2 Sur 13 Sudeste 0 -- -- 79
2019-09-30 18:00:00 24.2 7 Sudeste 21 Sudeste 0 -- -- 73
2019-09-30 17:00:00 25.4 8 Sur 22 Este 0 -- -- 67
2019-09-30 16:00:00 26.1 11 Sudeste 22 Este 0 -- -- 63
2019-09-30 15:00:00 26.3 12 Sudeste 22 Sudeste 0 -- -- 61
2019-09-30 14:00:00 26.5 10 Sudeste 24 Este 0 -- -- 55
2019-09-30 13:00:00 26.2 10 Sudeste 19 Sudeste 0 -- -- 57
2019-09-30 12:00:00 26 8 Este 15 Este 0 -- -- 53
2019-09-30 11:00:00 24.8 4 Sudeste 10 Sudeste 0 -- -- 39
2019-09-30 10:00:00 19.9 0 Calma 7 Sudoeste 0 -- -- 58
2019-09-30 09:00:00 15.7 0 Calma 12 Sudoeste 0 -- -- 67
2019-09-30 08:00:00 14.4 8 Sudoeste 13 Sudoeste 0 -- -- 64
2019-09-30 07:00:00 15.5 6 Sudoeste 15 Sudoeste 0 -- -- 61
2019-09-30 06:00:00 15.5 11 Sudoeste 14 Sudoeste 0 -- -- 61
2019-09-30 05:00:00 15.7 6 Sudoeste 13 Sudoeste 0 -- -- 64
2019-09-30 04:00:00 17.1 5 Sudoeste 12 Sudoeste 0 -- -- 58
2019-09-30 03:00:00 16.8 5 Sudoeste 11 Sudoeste 0 -- -- 62
2019-09-30 02:00:00 15.6 2 Sudoeste 10 Sudoeste 0 -- -- 72
2019-09-30 01:00:00 16.2 7 Sudoeste 15 Sudoeste 0 -- -- 76
2019-09-30 00:00:00 16.8 10 Sudoeste 17 Sudoeste 0 -- -- 84
2019-09-29 23:00:00 17.7 11 Sudoeste 15 Sudoeste 0 -- -- 85
2019-09-29 22:00:00 18.1 5 Sudoeste 14 Sudoeste 0 -- -- 84
2019-09-29 21:00:00 19.1 9 Sudoeste 11 Sudoeste 0 -- -- 80
2019-09-29 20:00:00 22.3 4 Oeste 10 Sudeste 0 -- -- 71
2019-09-29 19:00:00 25.1 6 Sudeste 15 Sudeste 0 -- -- 63
2019-09-29 18:00:00 27.5 9 Sudeste 19 Sudeste 0 -- -- 62
2019-09-29 17:00:00 29.9 5 Este 15 Sur 0 -- -- 45
2019-09-29 16:00:00 31.4 5 Norte 16 Sudoeste 0 -- -- 35
2019-09-29 15:00:00 31.3 7 Oeste 15 Sudoeste 0 -- -- 35
2019-09-29 14:00:00 29.9 6 Sudeste 21 Este 0 -- -- 35
2019-09-29 13:00:00 28.8 9 Este 16 Este 0 -- -- 52
2019-09-29 12:00:00 27 3 Sudeste 9 Sudeste 0 -- -- 49
2019-09-29 11:00:00 24.1 0 Calma 3 Sudeste 0 -- -- 66
2019-09-29 10:00:00 19.9 0 Calma 4 Sudoeste 0 -- -- 84
2019-09-29 09:00:00 15.9 0 Calma 12 Sudoeste 0 -- -- 96
2019-09-29 08:00:00 14.1 3 Oeste 9 Sudoeste 0 -- -- 96
2019-09-29 07:00:00 14.3 4 Oeste 12 Sudoeste 0 -- -- 95
2019-09-29 06:00:00 14.7 5 Sudoeste 13 Sudoeste 0 -- -- 95
2019-09-29 05:00:00 15.2 6 Sudoeste 12 Sudoeste 0 -- -- 95
2019-09-29 04:00:00 15.5 3 Sudoeste 10 Sudoeste 0 -- -- 94
2019-09-29 03:00:00 16 5 Sudoeste 11 Sudoeste 0 -- -- 95
2019-09-29 02:00:00 16.1 6 Sudoeste 11 Sudoeste 0 -- -- 94
2019-09-29 01:00:00 16.6 9 Sudoeste 12 Sudoeste 0 -- -- 94
2019-09-29 00:00:00 16.7 9 Sudoeste 12 Sudoeste 0 -- -- 91
2019-09-28 23:00:00 17.6 10 Sudoeste 13 Sudoeste 0 -- -- 88
2019-09-28 22:00:00 19.8 7 Sudoeste 8 Sudoeste 0 -- -- 84
2019-09-28 21:00:00 21.1 3 Noroeste 10 Sur 0 -- -- 83
2019-09-28 20:00:00 21.7 3 Sur 9 Sudoeste 0 -- -- 81
2019-09-28 19:00:00 22.2 3 Sudeste 14 Sudeste 0 -- -- 78
2019-09-28 18:00:00 22.9 5 Sur 17 Este 0 -- -- 76
2019-09-28 17:00:00 23.5 6 Sudeste 21 Sudeste 0 -- -- 74
2019-09-28 16:00:00 23.9 10 Sudeste 20 Sudeste 0 -- -- 73
2019-09-28 15:00:00 25.3 13 Sudeste 23 Sudeste 0 -- -- 67
2019-09-28 14:00:00 25.5 7 Sudeste 17 Sudeste 0 -- -- 59
2019-09-28 13:00:00 24.8 6 Sudeste 14 Este 0 -- -- 58
2019-09-28 12:00:00 24.2 8 Sudeste 16 Este 0 -- -- 62
2019-09-28 11:00:00 22.6 2 Sur 4 Sudeste 0 -- -- 64
2019-09-28 10:00:00 18.2 0 Calma 4 Sudoeste 0 -- -- 80
2019-09-28 09:00:00 14.9 3 Sudoeste 14 Sudoeste 0 -- -- 91
2019-09-28 08:00:00 13.5 6 Sudoeste 12 Sudoeste 0 -- -- 93
2019-09-28 07:00:00 14 11 Sudoeste 15 Sudoeste 0 -- -- 92
2019-09-28 06:00:00 14.9 5 Sudoeste 13 Sudoeste 0 -- -- 93
2019-09-28 05:00:00 15.3 6 Sudoeste 13 Sudoeste 0 -- -- 93
2019-09-28 04:00:00 16.1 9 Sudoeste 13 Sudoeste 0 -- -- 94
2019-09-28 03:00:00 16 6 Sudoeste 13 Sudoeste 0 -- -- 94
2019-09-28 02:00:00 16.4 4 Sudoeste 10 Sudoeste 0 -- -- 92
2019-09-28 01:00:00 17 8 Sudoeste 12 Sudoeste 0 -- -- 94
2019-09-28 00:00:00 16.8 3 Sudoeste 11 Sudoeste 0 -- -- 92
2019-09-27 23:00:00 16.9 5 Sudoeste 12 Sudoeste 0 -- -- 90
2019-09-27 22:00:00 17.8 8 Sudoeste 12 Sudoeste 0 -- -- 85
2019-09-27 21:00:00 19.6 4 Sudoeste 13 Sudoeste 0 -- -- 85
2019-09-27 20:00:00 21.3 4 Sur 12 Sur 0 -- -- 83
2019-09-27 19:00:00 22.5 4 Sur 14 Sudeste 0 -- -- 79
2019-09-27 18:00:00 24.2 9 Sudeste 21 Sudeste 0 -- -- 74
2019-09-27 17:00:00 25.8 10 Sudeste 22 Sudeste 0 -- -- 67
2019-09-27 16:00:00 26.6 11 Sudeste 23 Sudeste 0 -- -- 61
2019-09-27 15:00:00 27.7 10 Sudeste 23 Sudeste 0 -- -- 55
2019-09-27 14:00:00 28.3 11 Sudeste 19 Sudeste 0 -- -- 52
2019-09-27 13:00:00 27.7 8 Sudeste 16 Este 0 -- -- 50
2019-09-27 12:00:00 26.8 5 Este 13 Este 0 -- -- 48
2019-09-27 11:00:00 24 5 Sudeste 8 Sudeste 0 -- -- 57
2019-09-27 10:00:00 18.6 0 Calma 6 Sudoeste 0 -- -- 79
2019-09-27 09:00:00 14.7 3 Sudoeste 10 Sudoeste 0 -- -- 92
2019-09-27 08:00:00 13.5 3 Sudoeste 12 Sudoeste 0 -- -- 95
2019-09-27 07:00:00 14.1 3 Sudoeste 11 Sudoeste 0 -- -- 95
2019-09-27 06:00:00 14.4 4 Sudoeste 10 Sudoeste 0 -- -- 95
2019-09-27 05:00:00 15 5 Sudoeste 11 Sudoeste 0 -- -- 94
2019-09-27 04:00:00 15.7 5 Sudoeste 13 Sudoeste 0 -- -- 94
2019-09-27 03:00:00 16.3 9 Sudoeste 12 Sudoeste 0 -- -- 93
2019-09-27 02:00:00 16.9 8 Sudoeste 12 Sudoeste 0 -- -- 93
2019-09-27 01:00:00 17.4 3 Oeste 10 Sudoeste 0 -- -- 93
2019-09-27 00:00:00 17.5 8 Sudoeste 11 Sudoeste 0 -- -- 93
2019-09-26 23:00:00 17.4 6 Sudoeste 11 Sudoeste 0 -- -- 91
2019-09-26 22:00:00 18.1 6 Sudoeste 10 Sudoeste 0 -- -- 89
2019-09-26 21:00:00 19.2 3 Sudoeste 7 Sur 0 -- -- 86
2019-09-26 20:00:00 21.3 3 Sudeste 14 Este 0 -- -- 83
2019-09-26 19:00:00 22.5 6 Sudeste 21 Sudeste 0 -- -- 78
2019-09-26 18:00:00 24.1 11 Sudeste 21 Sudeste 0 -- -- 71
2019-09-26 17:00:00 25.4 10 Sudeste 25 Este 0 -- -- 64
2019-09-26 16:00:00 27 10 Sudeste 21 Sudeste 0 -- -- 54
2019-09-26 15:00:00 28.3 4 Noroeste 17 Norte 0 -- -- 40
2019-09-26 14:00:00 27.6 5 Sudeste 13 Noroeste 0 -- -- 40
2019-09-26 13:00:00 26.2 3 Sudeste 13 Sur 0 -- -- 49
2019-09-26 12:00:00 24.9 3 Sudeste 10 Este 0 -- -- 49
2019-09-26 11:00:00 22.6 3 Este 6 Nordeste 0 -- -- 55
2019-09-26 10:00:00 18.9 0 Calma 3 Este 0 -- -- 75
2019-09-26 09:00:00 14.7 0 Calma 13 Sudoeste 0 -- -- 88
2019-09-26 08:00:00 13 7 Sudoeste 13 Sudoeste 0 -- -- 91
2019-09-26 07:00:00 13.8 9 Sudoeste 12 Sudoeste 0 -- -- 94
2019-09-26 06:00:00 14.3 3 Sudoeste 10 Sudoeste 0 -- -- 95
2019-09-26 05:00:00 14.6 4 Sudoeste 10 Sudoeste 0 -- -- 94
2019-09-26 04:00:00 14.9 4 Oeste 9 Sudoeste 0 -- -- 93
2019-09-26 03:00:00 15.8 3 Oeste 10 Sudoeste 0 -- -- 92
2019-09-26 02:00:00 16.7 5 Sudoeste 6 Sudoeste 0 -- -- 91
2019-09-26 01:00:00 17.4 0 Calma 8 Sudoeste 0 -- -- 91
2019-09-26 00:00:00 16.4 5 Sudoeste 10 Sudoeste 0 -- -- 92
2019-09-25 23:00:00 16.2 5 Sudoeste 8 Sudoeste 0 -- -- 91
2019-09-25 22:00:00 16.7 0 Calma 9 Sudoeste 0 -- -- 88
2019-09-25 21:00:00 17.8 2 Sudoeste 8 Sudoeste 0 -- -- 84
2019-09-25 20:00:00 20 3 Sur 9 Sudeste 0 -- -- 78
2019-09-25 19:00:00 21.4 6 Sudeste 14 Este 0 -- -- 70
2019-09-25 18:00:00 22.4 5 Sur 17 Este 0 -- -- 63
2019-09-25 17:00:00 23.3 10 Sudeste 23 Sudeste 0 -- -- 61
2019-09-25 16:00:00 22.4 9 Sudeste 21 Este 0 -- -- 66
2019-09-25 15:00:00 22.7 9 Sudeste 26 Sudeste 0 -- -- 69
2019-09-25 14:00:00 24.1 13 Sudeste 25 Este 0 -- -- 69
2019-09-25 13:00:00 24.3 8 Sudeste 18 Sudeste 0 -- -- 54
2019-09-25 12:00:00 25.9 9 Norte 22 Norte 0 -- -- 42
2019-09-25 11:00:00 25 13 Noroeste 25 Noroeste 0 -- -- 46
2019-09-25 10:00:00 23.8 10 Norte 22 Noroeste 0 -- -- 52
2019-09-25 09:00:00 21.7 8 Norte 21 Norte 0 -- -- 59
2019-09-25 08:00:00 19 7 Noroeste 17 Noroeste 0 -- -- 68
2019-09-25 07:00:00 19.5 5 Noroeste 19 Noroeste 0 -- -- 65
2019-09-25 06:00:00 16.3 6 Oeste 13 Sudoeste 0 -- -- 77
2019-09-25 05:00:00 16.5 5 Sudoeste 14 Sudoeste 0 -- -- 78
2019-09-25 04:00:00 16.7 2 Sudoeste 7 Sudoeste 0 -- -- 77
2019-09-25 03:00:00 17.4 6 Oeste 13 Sudoeste 0 -- -- 73
2019-09-25 02:00:00 16.8 7 Sudoeste 13 Sudoeste 0 -- -- 70
2019-09-25 01:00:00 16.9 3 Sudoeste 14 Sudoeste 0 -- -- 69
2019-09-25 00:00:00 16.7 6 Sudoeste 9 Sudoeste 0 -- -- 70
2019-09-24 23:00:00 17.9 2 Sudoeste 15 Sudoeste 0 -- -- 63
2019-09-24 22:00:00 19.3 7 Oeste 14 Sudoeste 0 -- -- 56
2019-09-24 21:00:00 21.4 3 Oeste 10 Noroeste 0 -- -- 48
2019-09-24 20:00:00 23.8 2 Sudeste 10 Oeste 0 -- -- 56
2019-09-24 19:00:00 27 3 Oeste 14 Sur 0 -- -- 36
2019-09-24 18:00:00 29.5 6 Sudeste 24 Sudeste 0 -- -- 34
2019-09-24 17:00:00 29.8 10 Sudeste 23 Sudeste 0 -- -- 37
2019-09-24 16:00:00 30.1 9 Este 22 Sudeste 0 -- -- 38
2019-09-24 15:00:00 31.4 7 Sudeste 15 Sudeste 0 -- -- 30
2019-09-24 14:00:00 30.4 7 Sur 17 Este 0 -- -- 32
2019-09-24 13:00:00 28.5 5 Este 13 Este 0 -- -- 35
2019-09-24 12:00:00 27 4 Sudeste 8 Este 0 -- -- 38
2019-09-24 11:00:00 23.5 3 Sudeste 6 Sudeste 0 -- -- 53
2019-09-24 10:00:00 19 0 Calma 10 Sudoeste 0 -- -- 66
2019-09-24 09:00:00 14.8 4 Sudoeste 11 Sudoeste 0 -- -- 81
2019-09-24 08:00:00 12.3 5 Oeste 11 Sudoeste 0 -- -- 89
2019-09-24 07:00:00 13 6 Sudoeste 12 Sudoeste 0 -- -- 84
2019-09-24 06:00:00 13.2 3 Sudoeste 13 Sudoeste 0 -- -- 87
2019-09-24 05:00:00 13.5 7 Sudoeste 12 Sudoeste 0 -- -- 88
2019-09-24 04:00:00 13.7 3 Oeste 11 Sudoeste 0 -- -- 89
2019-09-24 03:00:00 14.4 6 Sudoeste 12 Sudoeste 0 -- -- 89
2019-09-24 02:00:00 14.7 9 Sudoeste 13 Sudoeste 0 -- -- 91
2019-09-24 01:00:00 15 4 Sudoeste 10 Sudoeste 0 -- -- 90
2019-09-24 00:00:00 15.7 6 Sudoeste 14 Sudoeste 0 -- -- 88
2019-09-23 23:00:00 16.1 9 Sudoeste 13 Sudoeste 0 -- -- 86
2019-09-23 22:00:00 16.7 6 Sudoeste 10 Sudoeste 0 -- -- 83
2019-09-23 21:00:00 17.9 7 Sudoeste 11 Sudoeste 0 -- -- 78
2019-09-23 20:00:00 20.2 3 Sudoeste 8 Este 0 -- -- 73
2019-09-23 19:00:00 21.8 3 Sudeste 17 Sudeste 0 -- -- 64
2019-09-23 18:00:00 23.3 10 Sudeste 20 Sudeste 0 -- -- 54
2019-09-23 17:00:00 24.1 9 Sudeste 19 Este 0 -- -- 49
2019-09-23 16:00:00 24.5 9 Sudeste 19 Sudeste 0 -- -- 49
2019-09-23 15:00:00 25.8 9 Sudoeste 19 Sudeste 0 -- -- 44
2019-09-23 14:00:00 24.6 6 Sudeste 13 Sudeste 0 -- -- 44
2019-09-23 13:00:00 24.7 5 Este 18 Sudeste 0 -- -- 42
2019-09-23 12:00:00 23.8 5 Este 13 Este 0 -- -- 43
2019-09-23 11:00:00 22.5 5 Nordeste 10 Nordeste 0 -- -- 44
2019-09-23 10:00:00 18.4 3 Norte 10 Sudoeste 0 -- -- 66
2019-09-23 09:00:00 14.2 6 Sudoeste 14 Sudoeste 0 -- -- 77
2019-09-23 08:00:00 12 6 Sudoeste 13 Sudoeste 0 -- -- 81
2019-09-23 07:00:00 12 7 Sudoeste 12 Sudoeste 0 -- -- 83
2019-09-23 06:00:00 12.8 2 Oeste 10 Sudoeste 0 -- -- 81
2019-09-23 05:00:00 12.7 4 Sudoeste 9 Sudoeste 0 -- -- 83
2019-09-23 04:00:00 13.6 2 Oeste 6 Sudoeste 0 -- -- 81
2019-09-23 03:00:00 16.5 2 Oeste 14 Oeste 0 -- -- 67
2019-09-23 02:00:00 16.3 5 Oeste 13 Noroeste 0 -- -- 66
2019-09-23 01:00:00 16.6 6 Oeste 19 Oeste 0 -- -- 64
2019-09-23 00:00:00 15.9 3 Oeste 14 Sudoeste 0 -- -- 81
2019-09-22 23:00:00 18 9 Sudoeste 14 Sudoeste 0 -- -- 75
2019-09-22 22:00:00 21.2 4 Oeste 22 Noroeste 0 -- -- 62
2019-09-22 21:00:00 21.9 9 Oeste 21 Noroeste 0 -- -- 60
2019-09-22 20:00:00 23.5 4 Oeste 23 Noroeste 0 -- -- 57
2019-09-22 19:00:00 26 5 Noroeste 20 Noroeste 0 -- -- 49
2019-09-22 18:00:00 27.2 7 Oeste 18 Noroeste 0 -- -- 46
2019-09-22 17:00:00 28.4 7 Oeste 28 Noroeste 0 -- -- 43
2019-09-22 16:00:00 29.2 14 Noroeste 41 Noroeste 0 -- -- 39
2019-09-22 15:00:00 29.5 9 Noroeste 24 Noroeste 0 -- -- 43
2019-09-22 14:00:00 28.4 8 Sudoeste 26 Sudoeste 0 -- -- 45
2019-09-22 13:00:00 28.4 5 Noroeste 20 Noroeste 0 -- -- 45
2019-09-22 12:00:00 26.9 11 Noroeste 27 Noroeste 0 -- -- 47
2019-09-22 11:00:00 25.7 7 Noroeste 24 Noroeste 0 -- -- 52
2019-09-22 10:00:00 24 5 Oeste 19 Oeste 0 -- -- 57
2019-09-22 09:00:00 20.6 9 Noroeste 18 Noroeste 0 -- -- 68
2019-09-22 08:00:00 17.8 5 Oeste 13 Oeste 0 -- -- 77
2019-09-22 07:00:00 17 6 Oeste 14 Sudoeste 0 -- -- 91
2019-09-22 06:00:00 15.9 5 Sudoeste 13 Sudoeste 0 -- -- 94
2019-09-22 05:00:00 16.5 9 Sudoeste 13 Sudoeste 0 -- -- 94
2019-09-22 04:00:00 17.4 4 Sur 11 Sudoeste 0 -- -- 94
2019-09-22 03:00:00 18 3 Oeste 10 Sudoeste 0 -- -- 92
2019-09-22 02:00:00 19.2 5 Sudoeste 7 Sudoeste 0 -- -- 90
2019-09-22 01:00:00 19 3 Sudoeste 6 Sudoeste 0 -- -- 91
2019-09-22 00:00:00 19.5 3 Sudoeste 6 Sudoeste 0 -- -- 89
2019-09-21 23:00:00 20.5 0 Calma 5 Sudoeste 0 -- -- 85
2019-09-21 22:00:00 21.5 3 Sudeste 11 Sudeste 0 -- -- 83
2019-09-21 21:00:00 22.8 3 Norte 12 Oeste 0 -- -- 76
2019-09-21 20:00:00 23.2 3 Sur 19 Sur 0 -- -- 71
2019-09-21 19:00:00 24.9 6 Sudoeste 13 Sudoeste 0 -- -- 60
2019-09-21 18:00:00 25.6 3 Oeste 16 Oeste 0 -- -- 58
2019-09-21 17:00:00 26.8 6 Sudoeste 24 Noroeste 0 -- -- 51
2019-09-21 16:00:00 26.3 4 Oeste 17 Sur 0 -- -- 50
2019-09-21 15:00:00 26.8 6 Sudoeste 18 Nordeste 0 -- -- 52
2019-09-21 14:00:00 26.7 7 Sur 14 Sur 0 -- -- 51
2019-09-21 13:00:00 25.8 5 Sudoeste 14 Noroeste 0 -- -- 54
2019-09-21 12:00:00 24.1 6 Nordeste 11 Este 0 -- -- 58
2019-09-21 11:00:00 23.6 3 Norte 5 Norte 0 -- -- 56
2019-09-21 10:00:00 21.1 4 Norte 11 Sudoeste 0 -- -- 69
2019-09-21 09:00:00 17.2 6 Oeste 14 Noroeste 0 -- -- 90
2019-09-21 08:00:00 17.2 2 Noroeste 13 Noroeste 0 -- -- 89
2019-09-21 07:00:00 17.4 4 Oeste 14 Oeste 0 -- -- 87
2019-09-21 06:00:00 18 0 Calma 7 Sudoeste 0 -- -- 95
2019-09-21 05:00:00 17.8 2 Oeste 8 Sudoeste 0 -- -- 95
2019-09-21 04:00:00 18 5 Sudoeste 7 Sudoeste 0 -- -- 94
2019-09-21 03:00:00 17.9 3 Sudoeste 7 Sudoeste 0 -- -- 95
2019-09-21 02:00:00 18.2 0 Calma 9 Sudoeste 0 -- -- 93
2019-09-21 01:00:00 18.8 3 Sur 11 Sudoeste 0 -- -- 94
2019-09-21 00:00:00 19.1 0 Calma 10 Sudeste 0 -- -- 91
2019-09-20 23:00:00 19.8 5 Sudeste 15 Sudeste 0 -- -- 92
2019-09-20 22:00:00 20 3 Sur 11 Sur 0 -- -- 93
2019-09-20 21:00:00 20 4 Sur 15 Sudoeste 3.6 -- -- 90
2019-09-20 20:00:00 21.1 3 Sudeste 13 Sudeste 0 -- -- 85
2019-09-20 19:00:00 21.4 7 Sudeste 21 Sudeste 0 -- -- 83
2019-09-20 18:00:00 22.3 10 Sudeste 20 Este 0 -- -- 78
2019-09-20 17:00:00 22.4 7 Sudeste 20 Sudeste 0 -- -- 77
2019-09-20 16:00:00 22.9 10 Sudeste 26 Sudeste 0 -- -- 73
2019-09-20 15:00:00 23.1 10 Sudeste 20 Sudeste 0 -- -- 76
2019-09-20 14:00:00 23.5 7 Sudeste 17 Sudeste 0 -- -- 69
2019-09-20 13:00:00 24 5 Sudeste 13 Sudeste 0 -- -- 63
2019-09-20 12:00:00 23.5 5 Este 13 Sudeste 0 -- -- 64
2019-09-20 11:00:00 22.9 3 Noroeste 13 Norte 0 -- -- 70
2019-09-20 10:00:00 19.8 5 Norte 8 Norte 0 -- -- 84
2019-09-20 09:00:00 17.8 0 Calma 8 Sudoeste 0 -- -- 95
2019-09-20 08:00:00 16.6 6 Sudoeste 9 Sudoeste 0 -- -- 95
2019-09-20 07:00:00 16.5 3 Sudoeste 10 Sudoeste 0 -- -- 95
2019-09-20 06:00:00 16.4 6 Sudoeste 9 Sudoeste 0 -- -- 94
2019-09-20 05:00:00 17.4 0 Calma 8 Sudoeste 0 -- -- 94
2019-09-20 04:00:00 17.3 5 Sudoeste 10 Sudoeste 0 -- -- 93
2019-09-20 03:00:00 17.8 3 Sudoeste 6 Sudoeste 0 -- -- 90
2019-09-20 02:00:00 19.2 2 Sur 8 Sudoeste 0 -- -- 89
2019-09-20 01:00:00 19.5 3 Sur 10 Sudoeste 0 -- -- 88
2019-09-20 00:00:00 19.8 4 Sur 12 Sur 0 -- -- 90
2019-09-19 23:00:00 18.6 2 Sur 9 Sur 0 -- -- 93
2019-09-19 22:00:00 18.3 5 Sudoeste 9 Sudoeste 0 -- -- 90
2019-09-19 21:00:00 19.5 3 Sudoeste 6 Sudoeste 0 -- -- 86
2019-09-19 20:00:00 21.5 2 Sudeste 12 Sudeste 0 -- -- 82
2019-09-19 19:00:00 22.6 4 Sudeste 17 Este 0 -- -- 77
2019-09-19 18:00:00 23.8 7 Sudeste 21 Este 0 -- -- 71
2019-09-19 17:00:00 24.6 9 Sudeste 21 Sudeste 0 -- -- 67
2019-09-19 16:00:00 24.6 10 Sudeste 23 Sudeste 0 -- -- 67
2019-09-19 15:00:00 24.9 8 Sudeste 24 Este 0 -- -- 66
2019-09-19 14:00:00 25.7 10 Sudeste 25 Sudeste 0 -- -- 64
2019-09-19 13:00:00 26.4 7 Nordeste 14 Este 0 -- -- 47
2019-09-19 12:00:00 25.9 4 Este 9 Sudeste 0 -- -- 47
2019-09-19 11:00:00 24.5 3 Este 6 Este 0 -- -- 51
2019-09-19 10:00:00 21.4 0 Calma 5 Sudeste 0 -- -- 70
2019-09-19 09:00:00 17.1 4 Sudoeste 8 Sudoeste 0 -- -- 82
2019-09-19 08:00:00 14.6 3 Sudoeste 13 Sudoeste 0 -- -- 87
2019-09-19 07:00:00 14.7 9 Sudoeste 12 Sudoeste 0 -- -- 85
2019-09-19 06:00:00 14.6 9 Sudoeste 12 Sudoeste 0 -- -- 87
2019-09-19 05:00:00 15.2 2 Oeste 12 Sudoeste 0 -- -- 85
2019-09-19 04:00:00 15.3 7 Sudoeste 14 Sudoeste 0 -- -- 84
2019-09-19 03:00:00 14.9 9 Sudoeste 13 Sudoeste 0 -- -- 87
2019-09-19 02:00:00 15.4 7 Sudoeste 12 Sudoeste 0 -- -- 86
2019-09-19 01:00:00 16 9 Sudoeste 14 Sudoeste 0 -- -- 83
2019-09-19 00:00:00 16.4 8 Sudoeste 13 Sudoeste -- -- -- 81
2019-09-18 23:00:00 16.6 7 Sudoeste 12 Sudoeste 0 -- -- 80
2019-09-18 22:00:00 17.2 9 Sudoeste 16 Sudoeste 0 -- -- 72
2019-09-18 21:00:00 18.6 8 Sudoeste 15 Sudoeste 0 -- -- 69
2019-09-18 20:00:00 21.7 4 Sudoeste 12 Sudeste 0 -- -- 63
2019-09-18 19:00:00 24.7 5 Sudeste 17 Sudeste 0 -- -- 53
2019-09-18 18:00:00 26.6 10 Sudeste 18 Este 0 -- -- 48
2019-09-18 17:00:00 27.7 9 Sudeste 20 Sudeste 0 -- -- 42
2019-09-18 16:00:00 27.9 13 Sudeste 24 Sudeste 0 -- -- 43
2019-09-18 15:00:00 28.2 11 Este 21 Este 0 -- -- 40
2019-09-18 14:00:00 28 7 Sudeste 19 Este 0 -- -- 41
2019-09-18 13:00:00 27.2 9 Sudeste 19 Sudeste 0 -- -- 42
2019-09-18 12:00:00 27.3 4 Este 10 Este 0 -- -- 42
2019-09-18 11:00:00 25.3 3 Nordeste 6 Sudeste 0 -- -- 46
2019-09-18 10:00:00 21.2 5 Sudeste 8 Oeste 0 -- -- 64
2019-09-18 09:00:00 16.3 4 Oeste 13 Sudoeste 0 -- -- 83
2019-09-18 08:00:00 13.8 5 Sudoeste 13 Sudoeste 0 -- -- 87
2019-09-18 07:00:00 13.9 3 Oeste 10 Sudoeste 0 -- -- 86
2019-09-18 06:00:00 14.8 3 Oeste 14 Sudoeste 0 -- -- 83
2019-09-18 05:00:00 15.5 5 Sudoeste 14 Sudoeste 0 -- -- 78
2019-09-18 04:00:00 15.4 5 Oeste 15 Sudoeste 0 -- -- 82
2019-09-18 03:00:00 15.4 9 Sudoeste 14 Sudoeste 0 -- -- 83
2019-09-18 02:00:00 16 2 Oeste 10 Sudoeste 0 -- -- 81
2019-09-18 01:00:00 18.3 3 Sudoeste 13 Sudoeste 0 -- -- 72
2019-09-18 00:00:00 20.3 9 Sudoeste 17 Sur 0 -- -- 61
2019-09-17 23:00:00 21.8 4 Sur 24 Nordeste 0 -- -- 56
2019-09-17 22:00:00 22.1 10 Noroeste 25 Noroeste 0 -- -- 54
2019-09-17 21:00:00 20.6 7 Oeste 15 Oeste 0 -- -- 72